Orestes, Indiana
Current Conditions -  °F | °C
As of 10:15 PM on Saturday 22 Nov 2014 (Local Time) from KMZZ Reporting Station
Overcast Overcast  
Wind Chill: 45°   Ceiling: 3700
Heat Index: 49°   Visibility: 10mi
Dew Point: 39°   Wind: 10mph
Humidity: 68%   Direction: 200°SSW
Pressure: 29.99"   Gusts: NA
Location:  40.27°N, 85.73°W
Report Text: KMZZ 230315Z AUTO 20009KT 10SM OVC037 10/04 A2999 RMK AO2 T00970041
Loading
Personal Weather Stations






























Interactive Weather Map New forecast layout! Learn more

10-Day Weather Forecast

Advertisements
Track Severe Weather on mobile